Time;durP1;ratioP1;P1;durP2;ratioP2;P2;SDS_P1;SDS_P2;PMS_P1;PMS_P2;Temp;Humidity;BMP_temperature;BMP_pressure;BME280_temperature;BME280_humidity;BME280_pressure;Samples;Min_cycle;Max_cycle;Signal;HPM_P1;HPM_P2
2022/07/30 00:00:53;;;;;;;5.75;5.03;;;;;;;27.09;60.84;100872.38;5011444;28;20050;-78
2022/07/30 00:03:20;;;;;;;5.43;4.63;;;;;;;27.11;60.77;100879.38;5012505;28;20057;-78
2022/07/30 00:05:48;;;;;;;5.32;4.82;;;;;;;27.13;60.82;100873.75;5010777;28;20509;-77
2022/07/30 00:08:15;;;;;;;5.00;4.35;;;;;;;27.13;60.49;100867.47;5012957;28;20046;-78
2022/07/30 00:10:43;;;;;;;4.90;4.45;;;;;;;27.14;60.57;100852.84;5012639;28;20046;-78
2022/07/30 00:13:12;;;;;;;5.78;4.40;;;;;;;27.15;60.92;100855.41;5012896;28;20054;-78
2022/07/30 00:15:40;;;;;;;5.25;4.30;;;;;;;27.16;60.22;100850.81;5011189;28;20057;-78
2022/07/30 00:18:08;;;;;;;5.28;4.43;;;;;;;27.17;60.31;100866.06;5011347;28;20054;-77
2022/07/30 00:20:39;;;;;;;4.68;4.18;;;;;;;27.18;60.57;100863.16;5012059;28;20041;-77
2022/07/30 00:23:09;;;;;;;5.23;4.73;;;;;;;27.18;60.31;100860.44;5011773;28;20064;-78
2022/07/30 00:25:37;;;;;;;4.97;4.15;;;;;;;27.20;60.56;100863.00;5010819;28;20497;-78
2022/07/30 00:28:04;;;;;;;5.30;4.80;;;;;;;27.20;60.12;100866.56;5011428;28;20050;-78
2022/07/30 00:30:31;;;;;;;4.80;4.05;;;;;;;27.21;60.07;100856.53;5012633;28;20045;-78
2022/07/30 00:32:59;;;;;;;8.82;4.50;;;;;;;27.22;60.34;100852.75;5010719;28;20061;-78
2022/07/30 00:35:26;;;;;;;5.72;4.72;;;;;;;27.23;60.43;100851.75;5010451;28;20068;-78
2022/07/30 00:37:54;;;;;;;5.38;4.63;;;;;;;27.23;59.99;100843.59;5012517;28;20046;-78
2022/07/30 00:40:22;;;;;;;6.53;4.63;;;;;;;27.25;60.43;100855.13;4993344;28;20053;-78
2022/07/30 00:42:49;;;;;;;5.68;5.07;;;;;;;27.24;60.36;100846.13;5011391;28;20057;-78
2022/07/30 00:45:18;;;;;;;5.85;5.13;;;;;;;27.25;60.14;100858.69;5010648;28;20421;-78
2022/07/30 00:47:45;;;;;;;5.43;4.93;;;;;;;27.27;60.31;100858.53;5012358;28;20053;-78
2022/07/30 00:50:14;;;;;;;5.20;4.72;;;;;;;27.27;59.84;100858.53;5010376;28;20057;-78
2022/07/30 00:52:42;;;;;;;5.03;4.50;;;;;;;27.27;59.95;100856.66;5010609;28;20081;-78
2022/07/30 00:55:12;;;;;;;5.57;4.57;;;;;;;27.28;59.87;100860.19;5011531;28;20378;-77
2022/07/30 00:57:40;;;;;;;4.80;4.35;;;;;;;27.30;60.13;100852.69;5010250;28;20395;-78
2022/07/30 01:00:11;;;;;;;4.65;4.15;;;;;;;27.30;59.87;100849.97;5010269;28;20054;-78
2022/07/30 01:02:38;;;;;;;5.53;4.45;;;;;;;27.31;59.90;100862.56;5012445;28;20046;-78
2022/07/30 01:05:06;;;;;;;7.22;4.35;;;;;;;27.31;59.95;100854.41;5011968;28;20057;-78
2022/07/30 01:07:34;;;;;;;6.15;4.93;;;;;;;27.32;60.11;100858.81;5011548;28;20042;-78
2022/07/30 01:10:03;;;;;;;5.57;5.05;;;;;;;27.33;60.15;100865.94;5011534;28;20516;-77
2022/07/30 01:12:30;;;;;;;5.72;5.20;;;;;;;27.32;59.70;100862.38;5012299;28;20049;-77
2022/07/30 01:15:00;;;;;;;7.18;5.30;;;;;;;27.33;60.09;100863.22;5011477;28;20053;-77
2022/07/30 01:17:28;;;;;;;5.80;4.40;;;;;;;27.33;59.73;100858.63;5010813;28;20046;-77
2022/07/30 01:20:07;;;;;;;5.40;4.90;;;;;;;27.35;59.94;100847.56;5010030;28;20050;-77
2022/07/30 01:22:42;;;;;;;5.65;5.03;;;;;;;27.36;59.79;100849.25;5012121;28;20046;-77
2022/07/30 01:25:31;;;;;;;5.60;4.88;;;;;;;27.35;59.96;100842.97;5011995;28;20053;-77
2022/07/30 01:28:04;;;;;;;5.43;4.85;;;;;;;27.36;59.63;100847.38;5009888;28;20046;-77
2022/07/30 01:30:37;;;;;;;5.28;4.57;;;;;;;27.36;59.69;100844.66;5012085;28;20049;-77
2022/07/30 01:33:07;;;;;;;5.30;4.68;;;;;;;27.38;59.54;100841.75;5009888;28;20050;-79
2022/07/30 01:35:36;;;;;;;6.15;5.18;;;;;;;27.36;59.87;100847.38;5009504;28;20058;-79
2022/07/30 01:38:05;;;;;;;5.53;4.90;;;;;;;27.39;59.71;100845.31;5009848;28;20062;-79
2022/07/30 01:40:33;;;;;;;4.90;4.40;;;;;;;27.39;59.55;100846.19;5009430;28;20050;-80
2022/07/30 01:43:02;;;;;;;5.50;5.00;;;;;;;27.39;59.43;100848.03;5009319;28;20414;-79
2022/07/30 01:45:31;;;;;;;6.85;4.68;;;;;;;27.39;59.38;100835.28;5010981;28;20045;-76
2022/07/30 01:48:11;;;;;;;6.95;5.05;;;;;;;27.40;59.67;100836.97;5011189;28;20046;-79
2022/07/30 01:50:43;;;;;;;6.15;5.10;;;;;;;27.40;59.49;100847.00;5011429;28;20058;-78
2022/07/30 01:53:21;;;;;;;6.65;4.70;;;;;;;27.41;59.68;100846.81;5009636;28;20053;-78
2022/07/30 01:55:51;;;;;;;6.78;4.90;;;;;;;27.42;59.38;100850.38;5009660;28;20076;-80
2022/07/30 01:58:23;;;;;;;6.47;4.75;;;;;;;27.41;59.66;100849.53;5009882;28;20061;-80
2022/07/30 02:00:55;;;;;;;5.03;4.43;;;;;;;27.41;59.51;100844.09;5010131;28;20049;-78
2022/07/30 02:03:26;;;;;;;6.75;5.40;;;;;;;27.42;59.13;100834.91;5009118;28;20050;-80
2022/07/30 02:06:11;;;;;;;5.35;4.40;;;;;;;27.43;59.46;100838.47;5009482;28;20062;-80
2022/07/30 02:09:01;;;;;;;6.32;4.95;;;;;;;27.43;59.22;100838.47;5010998;28;20061;-80
2022/07/30 02:14:48;;;;;;;6.10;5.07;;;;;;;27.43;59.18;100833.91;5009367;28;20050;-76
2022/07/30 02:17:25;;;;;;;5.88;5.22;;;;;;;27.43;59.28;100817.59;5011314;28;20057;-75
2022/07/30 02:19:59;;;;;;;5.13;4.63;;;;;;;27.45;59.19;100823.66;4994281;28;20486;-78
2022/07/30 02:22:31;;;;;;;5.40;4.72;;;;;;;27.45;58.98;100815.50;5027633;28;20054;-77
2022/07/30 02:25:00;;;;;;;5.88;4.82;;;;;;;27.45;59.07;100817.38;5010601;28;20054;-79
2022/07/30 02:27:32;;;;;;;5.03;4.55;;;;;;;27.46;59.24;100814.47;5011299;28;20057;-79
2022/07/30 02:30:02;;;;;;;5.60;5.10;;;;;;;27.46;59.24;100814.47;5009149;28;20061;-79
2022/07/30 02:32:36;;;;;;;4.65;4.18;;;;;;;27.47;59.15;100816.19;5009068;28;20050;-79
2022/07/30 02:35:18;;;;;;;6.43;4.45;;;;;;;27.47;59.07;100812.63;5009135;28;20058;-76
2022/07/30 02:37:49;;;;;;;5.60;4.90;;;;;;;27.48;59.42;100806.16;5041928;28;20050;-77
2022/07/30 02:40:19;;;;;;;5.80;5.25;;;;;;;27.48;59.26;100815.16;5010706;28;20057;-77
2022/07/30 02:42:50;;;;;;;6.22;5.60;;;;;;;27.48;59.12;100817.88;5008886;28;20049;-79
2022/07/30 02:45:23;;;;;;;5.25;4.70;;;;;;;27.48;58.89;100811.59;5010613;28;20061;-77
2022/07/30 02:47:55;;;;;;;5.07;4.57;;;;;;;27.49;58.78;100805.09;5008917;28;20057;-78
2022/07/30 02:50:24;;;;;;;6.53;5.38;;;;;;;27.49;58.79;100805.94;5008956;28;20058;-78
2022/07/30 02:52:56;;;;;;;5.03;4.35;;;;;;;27.49;59.12;100805.09;5008977;28;20401;-78
2022/07/30 02:55:29;;;;;;;5.95;5.07;;;;;;;27.49;59.15;100805.09;5008487;28;20061;-78
2022/07/30 02:57:57;;;;;;;7.53;5.40;;;;;;;27.50;59.14;100815.78;5010737;28;20050;-78
2022/07/30 03:00:28;;;;;;;5.18;4.68;;;;;;;27.50;59.04;100809.50;5008411;28;20081;-78
2022/07/30 03:02:57;;;;;;;6.30;5.80;;;;;;;27.50;58.91;100806.78;5008798;28;20061;-78
2022/07/30 03:05:25;;;;;;;8.10;5.97;;;;;;;27.51;58.99;100803.06;5012155;28;20053;-77
2022/07/30 03:07:57;;;;;;;6.07;5.50;;;;;;;27.50;59.01;100802.19;5012097;28;20054;-77
2022/07/30 03:10:26;;;;;;;5.97;5.18;;;;;;;27.50;58.68;100802.19;5014451;28;20046;-77
2022/07/30 03:12:55;;;;;;;6.35;5.75;;;;;;;27.51;58.61;100806.63;5012257;28;20050;-77
2022/07/30 03:15:23;;;;;;;5.60;5.10;;;;;;;27.51;58.59;100800.34;5012029;28;20050;-77
2022/07/30 03:17:52;;;;;;;6.38;5.70;;;;;;;27.50;58.72;100799.47;5013747;28;20054;-77
2022/07/30 03:20:26;;;;;;;6.03;5.45;;;;;;;27.51;58.84;100806.63;5011959;28;20057;-76
2022/07/30 03:22:56;;;;;;;6.72;5.30;;;;;;;27.52;58.41;100810.19;5011890;28;20119;-76
2022/07/30 03:25:26;;;;;;;8.18;5.68;;;;;;;27.51;58.40;100809.34;5011812;28;20493;-76
2022/07/30 03:27:56;;;;;;;7.13;6.43;;;;;;;27.50;58.51;100810.34;5011959;28;20061;-77
2022/07/30 03:30:25;;;;;;;7.15;6.47;;;;;;;27.48;58.52;100798.00;5013190;28;20050;-76
2022/07/30 03:32:54;;;;;;;7.60;6.85;;;;;;;27.48;58.29;100817.03;5013439;28;20054;-76
2022/07/30 03:35:26;;;;;;;7.43;5.90;;;;;;;27.48;58.17;100814.31;5013136;28;20057;-76
2022/07/30 03:37:59;;;;;;;7.13;6.43;;;;;;;27.47;58.37;100815.34;5012061;28;20057;-75
2022/07/30 03:40:28;;;;;;;7.50;6.70;;;;;;;27.47;58.47;100827.06;5011619;28;20409;-76
2022/07/30 03:42:56;;;;;;;7.85;6.72;;;;;;;27.47;58.24;100821.63;5011552;28;20061;-77
2022/07/30 03:45:25;;;;;;;7.65;6.68;;;;;;;27.47;58.06;100831.66;5012002;28;20068;-77
2022/07/30 03:47:58;;;;;;;8.20;6.47;;;;;;;27.46;57.90;100835.38;5011524;28;20050;-77
2022/07/30 03:50:27;;;;;;;7.53;6.82;;;;;;;27.46;58.24;100836.22;5011591;28;20409;-77
2022/07/30 03:52:55;;;;;;;8.30;7.38;;;;;;;27.47;58.42;100845.25;5011383;28;20056;-77
2022/07/30 03:55:24;;;;;;;9.90;7.55;;;;;;;27.46;58.07;100844.38;5011184;28;20054;-77
2022/07/30 03:58:24;;;;;;;9.15;7.60;;;;;;;27.46;58.27;100846.25;4972542;28;20522;-77
2022/07/30 04:00:51;;;;;;;10.45;7.95;;;;;;;27.46;58.39;100849.81;4970895;28;20522;-77
2022/07/30 04:03:29;;;;;;;8.60;7.75;;;;;;;27.46;58.07;100857.13;4955792;28;20051;-77
2022/07/30 04:06:01;;;;;;;10.07;8.35;;;;;;;27.45;57.89;100855.44;4955336;28;20073;-77
2022/07/30 04:08:29;;;;;;;10.75;9.00;;;;;;;27.45;58.07;100860.88;4955233;28;20054;-78
2022/07/30 04:10:57;;;;;;;9.82;8.82;;;;;;;27.46;57.86;100862.56;4955380;28;20427;-76
2022/07/30 04:13:43;;;;;;;11.55;9.60;;;;;;;27.44;57.75;100865.50;4977549;28;20054;-77
2022/07/30 04:16:18;;;;;;;10.70;9.60;;;;;;;27.45;57.56;100864.44;4970528;28;20061;-77
2022/07/30 04:19:14;;;;;;;8.93;8.02;;;;;;;27.45;57.71;100869.03;4955232;28;20062;-77
2022/07/30 04:21:43;;;;;;;11.88;10.68;;;;;;;27.46;58.26;100874.28;4955214;28;20050;-77
2022/07/30 04:24:12;;;;;;;10.60;9.65;;;;;;;27.46;57.80;100870.72;4955504;28;20518;-77
2022/07/30 04:26:40;;;;;;;10.80;9.55;;;;;;;27.45;57.71;100879.91;4954817;28;20530;-77
2022/07/30 04:29:09;;;;;;;11.10;9.30;;;;;;;27.44;57.66;100883.69;4954626;28;20057;-78
2022/07/30 04:31:45;;;;;;;11.35;9.98;;;;;;;27.45;57.92;100882.63;4954933;28;20047;-77
2022/07/30 04:34:36;;;;;;;10.00;9.00;;;;;;;27.45;57.71;100888.91;5003651;28;20065;-77
2022/07/30 04:37:06;;;;;;;11.20;8.55;;;;;;;27.45;57.66;100893.50;5010479;28;20046;-77
2022/07/30 04:39:34;;;;;;;10.00;9.02;;;;;;;27.45;57.95;100893.50;5012113;28;20050;-77
2022/07/30 04:42:01;;;;;;;9.63;8.70;;;;;;;27.45;57.79;100894.34;5010745;28;20057;-77
2022/07/30 04:44:38;;;;;;;9.70;8.70;;;;;;;27.45;57.52;100894.34;5010820;28;20046;-77
2022/07/30 04:47:23;;;;;;;8.55;7.75;;;;;;;27.44;57.76;100895.41;5010699;28;20061;-77
2022/07/30 04:50:24;;;;;;;9.35;8.18;;;;;;;27.45;58.13;100890.81;4971874;28;20165;-77
2022/07/30 04:52:54;;;;;;;10.30;8.35;;;;;;;27.45;57.73;100898.97;4971007;28;20078;-77
2022/07/30 04:55:27;;;;;;;9.10;8.07;;;;;;;27.44;57.66;100895.41;4954843;28;20074;-77
2022/07/30 04:57:56;;;;;;;11.40;9.18;;;;;;;27.43;57.78;100893.72;4956240;28;20062;-78
2022/07/30 05:00:24;;;;;;;10.35;9.25;;;;;;;27.44;57.60;100891.84;4954204;28;20224;-77
2022/07/30 05:02:53;;;;;;;9.85;8.05;;;;;;;27.43;57.40;100892.84;4955394;28;20450;-77
2022/07/30 05:05:22;;;;;;;8.63;7.82;;;;;;;27.42;57.68;100897.44;4954538;28;20543;-77
2022/07/30 05:07:51;;;;;;;8.77;7.80;;;;;;;27.44;57.92;100900.00;4955613;28;20062;-77
2022/07/30 05:10:19;;;;;;;8.15;7.32;;;;;;;27.43;57.86;100891.00;4954364;28;20055;-77
2022/07/30 05:12:46;;;;;;;8.25;7.18;;;;;;;27.44;57.78;100891.84;4954272;28;20051;-77
2022/07/30 05:15:16;;;;;;;8.85;7.10;;;;;;;27.43;57.63;100904.59;4954037;28;20054;-77
2022/07/30 05:17:44;;;;;;;7.95;7.15;;;;;;;27.44;57.56;100898.13;4954127;28;20067;-77
2022/07/30 05:20:13;;;;;;;8.85;6.60;;;;;;;27.44;57.70;100903.56;4969438;28;20442;-77
2022/07/30 05:23:07;;;;;;;8.75;7.95;;;;;;;27.44;57.96;100905.44;4970483;28;20162;-77
2022/07/30 05:25:37;;;;;;;8.90;7.50;;;;;;;27.44;57.49;100906.28;4953606;28;20080;-76
2022/07/30 05:28:14;;;;;;;7.63;6.93;;;;;;;27.44;57.64;100910.88;5005410;28;20054;-77
2022/07/30 05:30:43;;;;;;;8.45;6.93;;;;;;;27.44;57.73;100916.31;5010144;28;20056;-77
2022/07/30 05:33:16;;;;;;;8.02;6.43;;;;;;;27.44;57.86;100917.16;5010079;28;20046;-77
2022/07/30 05:35:44;;;;;;;7.35;6.65;;;;;;;27.45;57.64;100915.28;5009772;28;20050;-77
2022/07/30 05:38:13;;;;;;;10.27;7.45;;;;;;;27.45;57.78;100915.28;5009896;28;20519;-77
2022/07/30 05:41:00;;;;;;;8.20;7.32;;;;;;;27.45;57.92;100921.53;5010780;28;20069;-77
2022/07/30 05:44:00;;;;;;;10.43;7.40;;;;;;;27.45;57.67;100918.00;5009318;28;20070;-76
2022/07/30 05:46:29;;;;;;;8.82;7.30;;;;;;;27.45;57.69;100913.41;5011050;28;20065;-76
2022/07/30 05:48:58;;;;;;;9.63;7.68;;;;;;;27.46;57.75;100906.91;5009299;28;20062;-77
2022/07/30 05:51:28;;;;;;;8.23;7.45;;;;;;;27.46;57.54;100901.47;5011060;28;20053;-77
2022/07/30 05:53:56;;;;;;;8.68;7.57;;;;;;;27.47;57.72;100899.63;5009422;28;20048;-78
2022/07/30 05:56:59;;;;;;;7.72;6.88;;;;;;;27.46;57.62;100900.63;4989772;28;20057;-77
2022/07/30 05:59:39;;;;;;;8.70;7.90;;;;;;;27.45;57.72;100891.63;4972871;28;20165;-77
2022/07/30 06:02:17;;;;;;;9.32;8.32;;;;;;;27.46;57.67;100885.16;4990356;28;20057;-77
2022/07/30 06:05:23;;;;;;;9.77;7.28;;;;;;;27.46;57.42;100885.16;4989834;28;20128;-77
2022/07/30 06:07:51;;;;;;;9.07;8.15;;;;;;;27.46;58.21;100890.59;4972402;28;20061;-77
2022/07/30 06:10:21;;;;;;;10.52;8.25;;;;;;;27.46;57.60;100887.88;4973072;28;20058;-77
2022/07/30 06:12:49;;;;;;;9.60;8.57;;;;;;;27.46;58.09;100881.59;4973131;28;20063;-77
2022/07/30 06:15:18;;;;;;;9.75;7.78;;;;;;;27.46;57.84;100882.44;4972552;28;20054;-78
2022/07/30 06:17:53;;;;;;;9.23;8.32;;;;;;;27.47;57.84;100889.59;4972643;28;20043;-77
2022/07/30 06:20:39;;;;;;;9.82;8.68;;;;;;;27.48;57.86;100885.84;4989698;28;20058;-78
2022/07/30 06:23:20;;;;;;;10.65;8.43;;;;;;;27.48;58.03;100887.72;4972412;28;20390;-78
2022/07/30 06:26:10;;;;;;;8.98;8.07;;;;;;;27.49;57.96;100892.13;4994584;28;20066;-78
2022/07/30 06:28:37;;;;;;;11.63;8.60;;;;;;;27.49;58.28;100903.00;4972615;28;20070;-77
2022/07/30 06:31:29;;;;;;;10.15;9.10;;;;;;;27.49;58.39;100903.84;4990260;28;20058;-78
2022/07/30 06:33:56;;;;;;;9.48;8.30;;;;;;;27.49;58.32;100905.72;5009336;28;20072;-78
2022/07/30 06:36:27;;;;;;;9.35;8.35;;;;;;;27.50;58.26;100901.97;5009920;28;20057;-78
2022/07/30 06:39:00;;;;;;;9.25;8.30;;;;;;;27.49;58.07;100906.56;5010901;28;20500;-78
2022/07/30 06:41:53;;;;;;;8.45;7.43;;;;;;;27.50;57.76;100910.97;4973041;28;20513;-78
2022/07/30 06:44:21;;;;;;;8.00;7.07;;;;;;;27.50;58.12;100905.53;4956643;28;20050;-78
2022/07/30 06:46:57;;;;;;;8.38;7.13;;;;;;;27.52;57.82;100916.22;4974675;28;20565;-78
2022/07/30 06:49:31;;;;;;;7.88;7.07;;;;;;;27.53;57.92;100917.91;4990127;28;20054;-78
2022/07/30 06:51:59;;;;;;;10.02;8.77;;;;;;;27.51;57.77;100904.50;4957963;28;20062;-79
2022/07/30 06:54:29;;;;;;;12.07;10.65;;;;;;;27.48;57.68;100909.47;4956242;28;20051;-78
2022/07/30 06:57:04;;;;;;;14.77;13.38;;;;;;;27.40;58.18;100921.25;4955948;28;20568;-78
2022/07/30 06:59:32;;;;;;;14.35;12.95;;;;;;;27.28;58.20;100920.84;4956399;28;20047;-78
2022/07/30 07:02:26;;;;;;;12.95;11.65;;;;;;;27.20;58.33;100920.91;4956310;28;20514;-78
2022/07/30 07:05:11;;;;;;;13.75;12.32;;;;;;;27.16;58.27;100933.16;4957473;28;20054;-80
2022/07/30 07:07:42;;;;;;;12.45;11.20;;;;;;;27.07;58.50;100934.22;4956125;28;20054;-79
2022/07/30 07:10:27;;;;;;;11.65;10.45;;;;;;;27.03;58.60;100933.75;4957575;28;20050;-78
2022/07/30 07:13:14;;;;;;;11.30;10.20;;;;;;;26.99;58.54;100926.97;4934151;28;20067;-83
2022/07/30 07:15:42;;;;;;;11.20;9.35;;;;;;;26.97;58.30;100928.19;4918381;29;20047;-78
2022/07/30 07:18:14;;;;;;;10.38;9.35;;;;;;;26.96;58.56;100937.34;4937186;29;20051;-82
2022/07/30 07:20:49;;;;;;;10.02;9.02;;;;;;;26.95;58.85;100931.09;4952833;29;20229;-78
2022/07/30 07:23:17;;;;;;;9.23;8.20;;;;;;;26.95;58.41;100924.81;4952743;29;20056;-78
2022/07/30 07:25:48;;;;;;;10.80;9.60;;;;;;;26.96;58.66;100931.94;4953048;29;20070;-79
2022/07/30 07:28:16;;;;;;;10.60;9.05;;;;;;;26.93;58.46;100927.69;4937153;29;20158;-79
2022/07/30 07:30:44;;;;;;;10.05;8.93;;;;;;;26.91;58.33;100934.34;4936768;29;20150;-79
2022/07/30 07:33:12;;;;;;;10.20;8.95;;;;;;;26.91;58.56;100928.91;4936952;29;20094;-79
2022/07/30 07:35:44;;;;;;;9.88;8.25;;;;;;;26.90;58.48;100940.78;4952747;29;20054;-79
2022/07/30 07:38:25;;;;;;;8.82;7.97;;;;;;;26.88;57.67;100935.53;4952826;29;20067;-79
2022/07/30 07:40:54;;;;;;;9.60;7.57;;;;;;;26.84;57.88;100934.19;4936805;29;20066;-79
2022/07/30 07:43:23;;;;;;;8.43;7.20;;;;;;;26.84;57.10;100923.34;4952380;29;20051;-79
2022/07/30 07:45:54;;;;;;;8.77;7.63;;;;;;;26.81;57.45;100927.25;4952480;29;20058;-79
2022/07/30 07:48:21;;;;;;;8.35;7.43;;;;;;;26.83;57.30;100927.09;4936957;29;20066;-79
2022/07/30 07:50:58;;;;;;;8.02;7.22;;;;;;;26.82;57.72;100931.69;4992314;28;20053;-79
2022/07/30 07:53:30;;;;;;;8.57;6.75;;;;;;;26.82;57.61;100930.84;5013087;28;20050;-79
2022/07/30 07:55:58;;;;;;;8.38;6.28;;;;;;;26.83;57.63;100935.22;5011324;28;20057;-79
2022/07/30 07:58:26;;;;;;;6.50;5.55;;;;;;;26.82;57.10;100934.41;5011303;28;20517;-79
2022/07/30 08:00:57;;;;;;;7.43;5.50;;;;;;;26.83;56.36;100943.38;5044441;28;20379;-80
2022/07/30 08:03:45;;;;;;;7.47;5.00;;;;;;;26.82;56.51;100941.69;5012924;28;20402;-79
2022/07/30 08:06:38;;;;;;;8.07;5.88;;;;;;;26.82;56.42;100934.41;5010930;28;20069;-79
2022/07/30 08:09:24;;;;;;;6.10;5.50;;;;;;;26.82;56.67;100938.97;5019531;28;20073;-79
2022/07/30 08:12:14;;;;;;;6.47;5.88;;;;;;;26.80;56.83;100939.16;5012602;28;20054;-79
2022/07/30 08:15:01;;;;;;;6.05;5.05;;;;;;;26.80;56.77;100947.28;5019276;28;20065;-79
2022/07/30 08:17:48;;;;;;;6.85;5.47;;;;;;;26.79;56.45;100942.88;5019268;28;20053;-78
2022/07/30 08:20:34;;;;;;;5.97;4.43;;;;;;;26.78;56.27;100949.34;5010971;28;20072;-79
2022/07/30 08:23:02;;;;;;;5.15;4.25;;;;;;;26.79;56.04;100950.19;5012749;28;20049;-79
2022/07/30 08:25:31;;;;;;;5.05;4.15;;;;;;;26.78;56.45;100941.22;5010826;28;20046;-82
2022/07/30 08:28:01;;;;;;;5.68;4.53;;;;;;;26.79;56.54;100953.75;5043544;28;20049;-83
2022/07/30 08:30:30;;;;;;;4.35;3.95;;;;;;;26.81;56.04;100950.84;5012970;28;20393;-78
2022/07/30 08:32:57;;;;;;;6.18;4.55;;;;;;;26.79;55.92;100944.75;5010459;28;20050;-82
2022/07/30 08:35:25;;;;;;;8.30;5.32;;;;;;;26.81;56.28;100961.72;5010993;28;20042;-79
2022/07/30 08:37:52;;;;;;;5.05;4.57;;;;;;;26.79;55.68;100952.91;5010868;28;20050;-79
2022/07/30 08:40:25;;;;;;;5.22;4.35;;;;;;;26.80;55.74;100954.59;5012081;28;20050;-79
2022/07/30 08:43:06;;;;;;;6.85;4.75;;;;;;;26.79;56.29;100953.75;5030617;27;20485;-80
2022/07/30 08:45:34;;;;;;;5.63;4.70;;;;;;;26.78;56.10;100952.06;5012807;28;20045;-79
2022/07/30 08:48:28;;;;;;;5.85;5.25;;;;;;;26.79;55.88;100944.75;5012374;28;20054;-79
2022/07/30 08:50:56;;;;;;;9.85;4.40;;;;;;;26.80;56.22;100949.16;5010745;28;20046;-80
2022/07/30 08:53:45;;;;;;;5.95;4.55;;;;;;;26.83;55.73;100954.25;5011470;28;20429;-82
2022/07/30 08:56:13;;;;;;;5.57;4.93;;;;;;;26.85;55.68;100950.31;5009994;28;20058;-79
2022/07/30 08:58:41;;;;;;;5.70;4.75;;;;;;;26.85;55.25;100947.59;5010341;28;20049;-75
2022/07/30 09:01:08;;;;;;;6.60;4.35;;;;;;;26.85;54.88;100938.59;5011219;28;20053;-78
2022/07/30 09:03:37;;;;;;;4.20;3.60;;;;;;;26.85;55.08;100944.03;5009882;28;20053;-78
2022/07/30 09:06:11;;;;;;;5.45;4.60;;;;;;;26.85;54.68;100944.03;5010250;28;20386;-78
2022/07/30 09:08:38;;;;;;;5.00;4.22;;;;;;;26.83;54.93;100943.38;5011782;28;20409;-80
2022/07/30 09:11:05;;;;;;;6.88;4.07;;;;;;;26.82;54.98;100949.84;5011477;28;20053;-78
2022/07/30 09:13:38;;;;;;;4.68;4.03;;;;;;;26.83;55.21;100955.09;5010093;28;20054;-77
2022/07/30 09:16:16;;;;;;;4.72;3.78;;;;;;;26.83;55.14;100952.38;5009769;28;20512;-77
2022/07/30 09:18:44;;;;;;;5.05;4.55;;;;;;;26.85;55.26;100954.91;5011595;28;20061;-79
2022/07/30 09:21:15;;;;;;;4.82;4.28;;;;;;;26.86;55.28;100940.31;5009673;28;20056;-75
2022/07/30 09:24:09;;;;;;;5.28;4.78;;;;;;;26.86;55.57;100951.19;5010001;28;20057;-74
2022/07/30 09:27:03;;;;;;;6.20;4.50;;;;;;;26.88;55.83;100944.53;4989756;28;20379;-77
2022/07/30 09:30:03;;;;;;;6.38;5.78;;;;;;;26.90;56.36;100940.78;5052277;28;20060;-77
2022/07/30 09:32:55;;;;;;;6.82;6.13;;;;;;;26.91;55.90;100940.63;5052489;28;20503;-76
2022/07/30 09:35:28;;;;;;;6.32;5.72;;;;;;;26.92;56.18;100946.91;5058913;28;20402;-79
2022/07/30 09:38:11;;;;;;;6.75;6.05;;;;;;;26.93;56.94;100945.88;5052332;28;20446;-78
2022/07/30 09:40:58;;;;;;;6.70;5.90;;;;;;;26.96;57.11;100948.22;5050664;28;20153;-77
2022/07/30 09:43:51;;;;;;;6.07;5.47;;;;;;;26.96;57.11;100938.19;5050920;28;20055;-77
2022/07/30 09:46:46;;;;;;;7.28;5.68;;;;;;;26.99;56.84;100937.84;5051094;28;20060;-78
2022/07/30 09:49:43;;;;;;;5.18;4.68;;;;;;;26.99;54.65;100943.28;5040400;28;20041;-78
2022/07/30 09:52:26;;;;;;;5.20;4.70;;;;;;;26.98;54.57;100944.31;5013143;28;20053;-78
2022/07/30 09:54:55;;;;;;;5.57;4.65;;;;;;;26.98;55.02;100944.31;5050968;28;20519;-79
2022/07/30 09:57:27;;;;;;;6.20;4.68;;;;;;;27.00;55.61;100944.97;5034686;28;20053;-75
2022/07/30 10:00:20;;;;;;;5.50;4.97;;;;;;;27.02;55.77;100940.22;5031994;28;20049;-76
2022/07/30 10:03:18;;;;;;;8.07;6.50;;;;;;;27.03;56.46;100933.75;5031334;28;20065;-76
2022/07/30 10:06:31;;;;;;;8.70;5.95;;;;;;;27.05;55.95;100937.13;4992513;28;20050;-76
2022/07/30 10:09:02;;;;;;;10.73;5.75;;;;;;;27.05;55.38;100928.13;5009394;28;20061;-76
2022/07/30 10:11:45;;;;;;;6.85;5.40;;;;;;;27.07;55.71;100934.22;5010334;28;20054;-76
2022/07/30 10:14:14;;;;;;;6.95;5.03;;;;;;;27.08;55.45;100935.91;5066113;27;20052;-75
2022/07/30 10:16:41;;;;;;;7.35;5.85;;;;;;;27.08;55.17;100925.88;5116473;28;20395;-76
2022/07/30 10:19:11;;;;;;;7.50;6.13;;;;;;;27.08;55.50;100917.75;5117742;28;20356;-75
2022/07/30 10:22:02;;;;;;;9.93;6.03;;;;;;;27.11;55.65;100916.56;5125080;28;20051;-76
2022/07/30 10:24:51;;;;;;;8.45;7.28;;;;;;;27.12;55.64;100915.53;5124450;28;20513;-76
2022/07/30 10:27:38;;;;;;;7.80;6.05;;;;;;;27.13;55.39;100910.94;5124895;28;20059;-73
2022/07/30 10:30:18;;;;;;;7.00;6.18;;;;;;;27.15;55.52;100914.34;5035667;27;20127;-75
2022/07/30 10:32:55;;;;;;;6.45;5.85;;;;;;;27.16;55.17;100910.59;5013624;28;20049;-75
2022/07/30 10:35:23;;;;;;;6.93;5.90;;;;;;;27.16;56.21;100906.00;5013974;28;20038;-76
2022/07/30 10:38:12;;;;;;;8.25;6.10;;;;;;;27.18;56.14;100900.38;5013696;28;20054;-76
2022/07/30 10:40:57;;;;;;;6.07;5.47;;;;;;;27.20;55.99;100901.03;5012149;28;20058;-73
2022/07/30 10:43:53;;;;;;;5.57;5.07;;;;;;;27.19;55.02;100907.50;5016178;28;20050;-76
2022/07/30 10:46:36;;;;;;;5.78;5.15;;;;;;;27.20;53.97;100910.03;5013912;28;20046;-73
2022/07/30 10:49:21;;;;;;;5.63;5.13;;;;;;;27.20;54.10;100901.88;5013338;28;20049;-77
2022/07/30 10:51:50;;;;;;;5.75;4.70;;;;;;;27.21;54.41;100900.84;5012661;28;20046;-76
2022/07/30 10:54:37;;;;;;;4.90;4.40;;;;;;;27.22;54.49;100905.25;5012990;28;20053;-77
2022/07/30 10:57:18;;;;;;;6.07;4.50;;;;;;;27.24;54.91;100897.78;5013752;28;20058;-75
2022/07/30 10:59:58;;;;;;;6.07;4.72;;;;;;;27.26;55.29;100897.59;5013144;28;20042;-75
2022/07/30 11:02:28;;;;;;;5.15;4.32;;;;;;;27.27;55.09;100896.56;5013878;28;20050;-76
2022/07/30 11:05:16;;;;;;;5.97;4.53;;;;;;;27.30;55.22;100904.34;5012117;28;20049;-76
2022/07/30 11:07:45;;;;;;;8.00;5.10;;;;;;;27.32;54.95;100902.31;5007296;28;20050;-74
2022/07/30 11:10:34;;;;;;;8.65;4.82;;;;;;;27.32;54.61;100902.31;4993457;28;20054;-76
2022/07/30 11:13:04;;;;;;;7.18;4.97;;;;;;;27.32;55.02;100897.72;5003831;28;20046;-76
2022/07/30 11:15:58;;;;;;;6.25;4.80;;;;;;;27.34;54.90;100903.78;5062109;28;20048;-74
2022/07/30 11:18:26;;;;;;;6.40;4.75;;;;;;;27.35;55.00;100900.06;5114662;28;20055;-75
2022/07/30 11:21:17;;;;;;;5.85;4.60;;;;;;;27.36;54.90;100893.59;5116799;28;20051;-75
2022/07/30 11:23:48;;;;;;;4.70;4.20;;;;;;;27.37;54.59;100894.44;5116099;28;20043;-75
2022/07/30 11:26:40;;;;;;;6.93;4.22;;;;;;;27.39;54.49;100894.25;4991645;28;20058;-76
2022/07/30 11:29:34;;;;;;;5.55;5.05;;;;;;;27.40;54.51;100888.63;5009670;28;20058;-76
2022/07/30 11:32:33;;;;;;;5.60;4.53;;;;;;;27.40;54.53;100887.78;4993070;28;20050;-75
2022/07/30 11:35:23;;;;;;;5.50;4.72;;;;;;;27.41;54.25;100892.19;4998094;28;20417;-75
2022/07/30 11:38:02;;;;;;;5.40;4.90;;;;;;;27.41;54.02;100893.03;5011628;28;20485;-75
2022/07/30 11:40:32;;;;;;;5.82;4.70;;;;;;;27.43;54.15;100890.13;5012335;28;20054;-75
2022/07/30 11:43:24;;;;;;;6.28;4.50;;;;;;;27.45;53.65;100888.06;5012694;28;20046;-76
2022/07/30 11:46:22;;;;;;;6.55;4.32;;;;;;;27.45;53.96;100888.91;5012911;28;20385;-75
2022/07/30 11:49:01;;;;;;;;;;;;;;;27.47;53.88;100886.88;5012454;28;20050;-76
2022/07/30 11:51:42;;;;;;;6.40;4.53;;;;;;;27.47;53.86;100875.16;5012603;28;19922;-79
2022/07/30 11:54:10;;;;;;;5.30;4.80;;;;;;;27.48;53.61;100872.25;4994658;28;20474;-76
2022/07/30 11:56:58;;;;;;;5.90;4.97;;;;;;;27.49;54.00;100878.53;4993029;28;20375;-80
2022/07/30 11:59:30;;;;;;;5.63;5.07;;;;;;;27.48;53.78;100869.53;4991350;28;20051;-77
2022/07/30 12:02:00;;;;;;;6.03;5.18;;;;;;;27.50;53.94;100870.16;4992766;28;20112;-78
2022/07/30 12:04:28;;;;;;;5.60;5.00;;;;;;;27.51;53.57;100868.31;4990883;28;20502;-80